sensor_id;sensor_type;location;lat;lon;timestamp;P1;durP1;ratioP1;P2;durP2;ratioP2
61764;SDS011;50188;48.114;-1.388;2022-11-15T00:01:24;11.10;;;4.80;;
61764;SDS011;50188;48.114;-1.388;2022-11-15T00:03:52;14.02;;;5.07;;
61764;SDS011;50188;48.114;-1.388;2022-11-15T00:06:18;16.15;;;6.93;;
61764;SDS011;50188;48.114;-1.388;2022-11-15T00:08:43;17.92;;;7.68;;
61764;SDS011;50188;48.114;-1.388;2022-11-15T00:11:10;15.93;;;5.47;;
61764;SDS011;50188;48.114;-1.388;2022-11-15T00:13:36;11.88;;;5.65;;
61764;SDS011;50188;48.114;-1.388;2022-11-15T00:16:02;12.77;;;4.65;;
61764;SDS011;50188;48.114;-1.388;2022-11-15T00:18:28;7.93;;;4.28;;
61764;SDS011;50188;48.114;-1.388;2022-11-15T00:20:55;14.02;;;4.82;;
61764;SDS011;50188;48.114;-1.388;2022-11-15T00:23:27;14.90;;;4.30;;
61764;SDS011;50188;48.114;-1.388;2022-11-15T00:25:56;13.07;;;4.75;;
61764;SDS011;50188;48.114;-1.388;2022-11-15T00:28:22;15.40;;;5.25;;
61764;SDS011;50188;48.114;-1.388;2022-11-15T00:30:48;17.55;;;5.60;;
61764;SDS011;50188;48.114;-1.388;2022-11-15T00:33:13;10.63;;;3.47;;
61764;SDS011;50188;48.114;-1.388;2022-11-15T00:35:39;11.60;;;4.57;;
61764;SDS011;50188;48.114;-1.388;2022-11-15T00:38:05;10.05;;;3.83;;
61764;SDS011;50188;48.114;-1.388;2022-11-15T00:40:30;9.40;;;4.07;;
61764;SDS011;50188;48.114;-1.388;2022-11-15T00:42:56;9.95;;;3.25;;
61764;SDS011;50188;48.114;-1.388;2022-11-15T00:45:22;11.68;;;4.28;;
61764;SDS011;50188;48.114;-1.388;2022-11-15T00:47:48;13.13;;;4.63;;
61764;SDS011;50188;48.114;-1.388;2022-11-15T00:50:13;12.77;;;4.50;;
61764;SDS011;50188;48.114;-1.388;2022-11-15T00:52:39;8.63;;;3.35;;
61764;SDS011;50188;48.114;-1.388;2022-11-15T00:55:05;11.73;;;4.07;;
61764;SDS011;50188;48.114;-1.388;2022-11-15T00:57:30;11.10;;;4.72;;
61764;SDS011;50188;48.114;-1.388;2022-11-15T00:59:56;14.60;;;3.85;;
61764;SDS011;50188;48.114;-1.388;2022-11-15T01:02:21;15.88;;;4.40;;
61764;SDS011;50188;48.114;-1.388;2022-11-15T01:04:47;13.85;;;3.97;;
61764;SDS011;50188;48.114;-1.388;2022-11-15T01:07:13;7.82;;;3.28;;
61764;SDS011;50188;48.114;-1.388;2022-11-15T01:09:38;9.73;;;3.35;;
61764;SDS011;50188;48.114;-1.388;2022-11-15T01:12:04;11.18;;;4.05;;
61764;SDS011;50188;48.114;-1.388;2022-11-15T01:14:29;8.68;;;3.45;;
61764;SDS011;50188;48.114;-1.388;2022-11-15T01:16:55;10.13;;;3.85;;
61764;SDS011;50188;48.114;-1.388;2022-11-15T01:19:21;11.57;;;4.07;;
61764;SDS011;50188;48.114;-1.388;2022-11-15T01:21:48;13.00;;;3.90;;
61764;SDS011;50188;48.114;-1.388;2022-11-15T01:24:15;8.93;;;3.72;;
61764;SDS011;50188;48.114;-1.388;2022-11-15T01:26:40;19.83;;;4.15;;
61764;SDS011;50188;48.114;-1.388;2022-11-15T01:29:06;7.40;;;3.80;;
61764;SDS011;50188;48.114;-1.388;2022-11-15T01:31:32;15.13;;;3.60;;
61764;SDS011;50188;48.114;-1.388;2022-11-15T01:33:57;14.23;;;3.35;;
61764;SDS011;50188;48.114;-1.388;2022-11-15T01:36:23;8.35;;;3.60;;
61764;SDS011;50188;48.114;-1.388;2022-11-15T01:38:53;12.20;;;3.17;;
61764;SDS011;50188;48.114;-1.388;2022-11-15T01:41:22;9.85;;;2.90;;
61764;SDS011;50188;48.114;-1.388;2022-11-15T01:43:54;11.40;;;3.33;;
61764;SDS011;50188;48.114;-1.388;2022-11-15T01:46:25;9.27;;;1.73;;
61764;SDS011;50188;48.114;-1.388;2022-11-15T01:48:55;12.95;;;3.38;;
61764;SDS011;50188;48.114;-1.388;2022-11-15T01:51:24;7.10;;;3.20;;
61764;SDS011;50188;48.114;-1.388;2022-11-15T01:53:55;9.05;;;2.90;;
61764;SDS011;50188;48.114;-1.388;2022-11-15T01:56:24;10.23;;;3.63;;
61764;SDS011;50188;48.114;-1.388;2022-11-15T01:58:55;6.22;;;3.13;;
61764;SDS011;50188;48.114;-1.388;2022-11-15T02:01:21;8.55;;;3.17;;
61764;SDS011;50188;48.114;-1.388;2022-11-15T02:03:55;8.68;;;3.45;;
61764;SDS011;50188;48.114;-1.388;2022-11-15T02:06:41;12.23;;;3.03;;
61764;SDS011;50188;48.114;-1.388;2022-11-15T02:09:08;8.23;;;3.15;;
61764;SDS011;50188;48.114;-1.388;2022-11-15T02:11:34;11.93;;;3.63;;
61764;SDS011;50188;48.114;-1.388;2022-11-15T02:14:00;5.40;;;2.30;;
61764;SDS011;50188;48.114;-1.388;2022-11-15T02:16:38;15.23;;;3.80;;
61764;SDS011;50188;48.114;-1.388;2022-11-15T02:19:46;11.18;;;3.30;;
61764;SDS011;50188;48.114;-1.388;2022-11-15T02:22:35;14.68;;;3.40;;
61764;SDS011;50188;48.114;-1.388;2022-11-15T02:25:28;6.88;;;2.40;;
61764;SDS011;50188;48.114;-1.388;2022-11-15T02:28:16;9.90;;;3.40;;
61764;SDS011;50188;48.114;-1.388;2022-11-15T02:31:04;13.35;;;2.50;;
61764;SDS011;50188;48.114;-1.388;2022-11-15T02:33:53;11.48;;;2.58;;
61764;SDS011;50188;48.114;-1.388;2022-11-15T02:36:44;5.10;;;2.83;;
61764;SDS011;50188;48.114;-1.388;2022-11-15T02:39:29;11.95;;;3.30;;
61764;SDS011;50188;48.114;-1.388;2022-11-15T02:42:05;7.13;;;2.08;;
61764;SDS011;50188;48.114;-1.388;2022-11-15T02:45:09;9.10;;;2.97;;
61764;SDS011;50188;48.114;-1.388;2022-11-15T02:47:41;7.45;;;2.55;;
61764;SDS011;50188;48.114;-1.388;2022-11-15T02:50:11;8.32;;;3.47;;
61764;SDS011;50188;48.114;-1.388;2022-11-15T02:52:40;14.60;;;3.15;;
61764;SDS011;50188;48.114;-1.388;2022-11-15T02:55:24;13.90;;;4.25;;
61764;SDS011;50188;48.114;-1.388;2022-11-15T02:58:04;13.15;;;3.13;;
61764;SDS011;50188;48.114;-1.388;2022-11-15T03:00:58;11.00;;;2.72;;
61764;SDS011;50188;48.114;-1.388;2022-11-15T03:03:40;8.32;;;2.33;;
61764;SDS011;50188;48.114;-1.388;2022-11-15T03:06:27;14.63;;;4.07;;
61764;SDS011;50188;48.114;-1.388;2022-11-15T03:09:23;8.57;;;2.97;;
61764;SDS011;50188;48.114;-1.388;2022-11-15T03:12:24;8.77;;;3.15;;
61764;SDS011;50188;48.114;-1.388;2022-11-15T03:15:00;12.45;;;4.43;;
61764;SDS011;50188;48.114;-1.388;2022-11-15T03:17:40;5.10;;;2.85;;
61764;SDS011;50188;48.114;-1.388;2022-11-15T03:22:39;7.57;;;2.42;;
61764;SDS011;50188;48.114;-1.388;2022-11-15T03:25:09;10.68;;;3.10;;
61764;SDS011;50188;48.114;-1.388;2022-11-15T03:27:40;14.10;;;2.42;;
61764;SDS011;50188;48.114;-1.388;2022-11-15T03:30:11;11.60;;;2.92;;
61764;SDS011;50188;48.114;-1.388;2022-11-15T03:32:50;9.80;;;3.17;;
61764;SDS011;50188;48.114;-1.388;2022-11-15T03:35:21;9.05;;;2.92;;
61764;SDS011;50188;48.114;-1.388;2022-11-15T03:37:55;8.85;;;2.90;;
61764;SDS011;50188;48.114;-1.388;2022-11-15T03:40:40;13.70;;;3.17;;
61764;SDS011;50188;48.114;-1.388;2022-11-15T03:43:15;8.02;;;3.22;;
61764;SDS011;50188;48.114;-1.388;2022-11-15T03:45:56;13.07;;;2.97;;
61764;SDS011;50188;48.114;-1.388;2022-11-15T03:48:27;16.30;;;3.05;;
61764;SDS011;50188;48.114;-1.388;2022-11-15T03:50:58;7.75;;;2.55;;
61764;SDS011;50188;48.114;-1.388;2022-11-15T03:53:24;11.70;;;3.55;;
61764;SDS011;50188;48.114;-1.388;2022-11-15T03:55:50;5.75;;;2.22;;
61764;SDS011;50188;48.114;-1.388;2022-11-15T03:58:16;5.07;;;2.70;;
61764;SDS011;50188;48.114;-1.388;2022-11-15T04:00:41;15.85;;;2.92;;
61764;SDS011;50188;48.114;-1.388;2022-11-15T04:03:07;11.90;;;3.45;;
61764;SDS011;50188;48.114;-1.388;2022-11-15T04:05:33;8.70;;;3.42;;
61764;SDS011;50188;48.114;-1.388;2022-11-15T04:07:58;9.95;;;2.67;;
61764;SDS011;50188;48.114;-1.388;2022-11-15T04:10:24;11.18;;;2.63;;
61764;SDS011;50188;48.114;-1.388;2022-11-15T04:12:50;9.43;;;3.47;;
61764;SDS011;50188;48.114;-1.388;2022-11-15T04:15:16;8.38;;;2.75;;
61764;SDS011;50188;48.114;-1.388;2022-11-15T04:17:45;13.43;;;3.53;;
61764;SDS011;50188;48.114;-1.388;2022-11-15T04:20:22;7.80;;;2.25;;
61764;SDS011;50188;48.114;-1.388;2022-11-15T04:23:11;10.70;;;2.65;;
61764;SDS011;50188;48.114;-1.388;2022-11-15T04:26:02;9.77;;;3.70;;
61764;SDS011;50188;48.114;-1.388;2022-11-15T04:28:30;11.18;;;2.97;;
61764;SDS011;50188;48.114;-1.388;2022-11-15T04:30:56;15.50;;;2.20;;
61764;SDS011;50188;48.114;-1.388;2022-11-15T04:33:21;10.40;;;2.90;;
61764;SDS011;50188;48.114;-1.388;2022-11-15T04:35:47;15.30;;;3.53;;
61764;SDS011;50188;48.114;-1.388;2022-11-15T04:38:33;7.38;;;2.28;;
61764;SDS011;50188;48.114;-1.388;2022-11-15T04:41:00;8.50;;;2.67;;
61764;SDS011;50188;48.114;-1.388;2022-11-15T04:43:25;12.23;;;2.55;;
61764;SDS011;50188;48.114;-1.388;2022-11-15T04:45:51;11.75;;;2.97;;
61764;SDS011;50188;48.114;-1.388;2022-11-15T04:48:16;6.50;;;2.95;;
61764;SDS011;50188;48.114;-1.388;2022-11-15T04:50:42;11.73;;;3.10;;
61764;SDS011;50188;48.114;-1.388;2022-11-15T04:53:08;10.10;;;3.20;;
61764;SDS011;50188;48.114;-1.388;2022-11-15T04:55:33;11.07;;;2.17;;
61764;SDS011;50188;48.114;-1.388;2022-11-15T04:57:59;12.27;;;3.42;;
61764;SDS011;50188;48.114;-1.388;2022-11-15T05:00:26;8.45;;;2.20;;
61764;SDS011;50188;48.114;-1.388;2022-11-15T05:02:54;7.90;;;2.55;;
61764;SDS011;50188;48.114;-1.388;2022-11-15T05:05:40;8.18;;;2.15;;
61764;SDS011;50188;48.114;-1.388;2022-11-15T05:08:06;8.77;;;2.35;;
61764;SDS011;50188;48.114;-1.388;2022-11-15T05:10:32;10.52;;;3.25;;
61764;SDS011;50188;48.114;-1.388;2022-11-15T05:12:57;11.98;;;3.03;;
61764;SDS011;50188;48.114;-1.388;2022-11-15T05:15:23;22.67;;;3.42;;
61764;SDS011;50188;48.114;-1.388;2022-11-15T05:17:48;8.65;;;2.78;;
61764;SDS011;50188;48.114;-1.388;2022-11-15T05:20:14;10.38;;;2.63;;
61764;SDS011;50188;48.114;-1.388;2022-11-15T05:22:39;4.90;;;2.20;;
61764;SDS011;50188;48.114;-1.388;2022-11-15T05:25:05;6.32;;;2.15;;
61764;SDS011;50188;48.114;-1.388;2022-11-15T05:27:32;12.93;;;2.88;;
61764;SDS011;50188;48.114;-1.388;2022-11-15T05:29:58;9.60;;;3.17;;
61764;SDS011;50188;48.114;-1.388;2022-11-15T05:32:24;8.02;;;2.72;;
61764;SDS011;50188;48.114;-1.388;2022-11-15T05:34:50;7.22;;;2.88;;
61764;SDS011;50188;48.114;-1.388;2022-11-15T05:37:16;9.88;;;3.17;;
61764;SDS011;50188;48.114;-1.388;2022-11-15T05:39:42;11.63;;;3.30;;
61764;SDS011;50188;48.114;-1.388;2022-11-15T05:42:09;10.25;;;2.58;;
61764;SDS011;50188;48.114;-1.388;2022-11-15T05:44:37;10.60;;;3.03;;
61764;SDS011;50188;48.114;-1.388;2022-11-15T05:47:06;13.60;;;3.88;;
61764;SDS011;50188;48.114;-1.388;2022-11-15T05:49:36;9.93;;;3.67;;
61764;SDS011;50188;48.114;-1.388;2022-11-15T05:52:05;10.45;;;3.72;;
61764;SDS011;50188;48.114;-1.388;2022-11-15T05:54:33;11.85;;;3.67;;
61764;SDS011;50188;48.114;-1.388;2022-11-15T05:56:59;13.10;;;3.40;;
61764;SDS011;50188;48.114;-1.388;2022-11-15T05:59:25;10.18;;;3.88;;
61764;SDS011;50188;48.114;-1.388;2022-11-15T06:01:53;11.75;;;4.07;;
61764;SDS011;50188;48.114;-1.388;2022-11-15T06:04:18;12.48;;;3.40;;
61764;SDS011;50188;48.114;-1.388;2022-11-15T06:06:44;10.38;;;4.13;;
61764;SDS011;50188;48.114;-1.388;2022-11-15T06:09:10;8.48;;;3.22;;
61764;SDS011;50188;48.114;-1.388;2022-11-15T06:11:35;12.75;;;4.18;;
61764;SDS011;50188;48.114;-1.388;2022-11-15T06:14:01;12.35;;;4.88;;
61764;SDS011;50188;48.114;-1.388;2022-11-15T06:16:26;16.45;;;4.68;;
61764;SDS011;50188;48.114;-1.388;2022-11-15T06:18:52;18.95;;;4.72;;
61764;SDS011;50188;48.114;-1.388;2022-11-15T06:21:17;9.73;;;3.08;;
61764;SDS011;50188;48.114;-1.388;2022-11-15T06:23:43;15.07;;;4.72;;
61764;SDS011;50188;48.114;-1.388;2022-11-15T06:26:08;9.27;;;4.15;;
61764;SDS011;50188;48.114;-1.388;2022-11-15T06:28:34;20.77;;;4.20;;
61764;SDS011;50188;48.114;-1.388;2022-11-15T06:31:04;9.32;;;4.60;;
61764;SDS011;50188;48.114;-1.388;2022-11-15T06:33:34;10.70;;;4.13;;
61764;SDS011;50188;48.114;-1.388;2022-11-15T06:36:01;12.23;;;4.13;;
61764;SDS011;50188;48.114;-1.388;2022-11-15T06:38:28;7.68;;;3.38;;
61764;SDS011;50188;48.114;-1.388;2022-11-15T06:40:54;9.90;;;3.25;;
61764;SDS011;50188;48.114;-1.388;2022-11-15T06:43:19;7.40;;;3.10;;
61764;SDS011;50188;48.114;-1.388;2022-11-15T06:45:45;7.30;;;2.75;;
61764;SDS011;50188;48.114;-1.388;2022-11-15T06:48:10;6.95;;;2.97;;
61764;SDS011;50188;48.114;-1.388;2022-11-15T06:50:36;11.32;;;4.28;;
61764;SDS011;50188;48.114;-1.388;2022-11-15T06:53:03;6.75;;;3.30;;
61764;SDS011;50188;48.114;-1.388;2022-11-15T06:55:28;8.80;;;2.97;;
61764;SDS011;50188;48.114;-1.388;2022-11-15T06:57:54;11.75;;;3.72;;
61764;SDS011;50188;48.114;-1.388;2022-11-15T07:00:20;7.45;;;3.22;;
61764;SDS011;50188;48.114;-1.388;2022-11-15T07:02:47;6.78;;;3.45;;
61764;SDS011;50188;48.114;-1.388;2022-11-15T07:05:13;9.05;;;4.10;;
61764;SDS011;50188;48.114;-1.388;2022-11-15T07:07:40;12.25;;;3.03;;
61764;SDS011;50188;48.114;-1.388;2022-11-15T07:10:06;7.57;;;2.70;;
61764;SDS011;50188;48.114;-1.388;2022-11-15T07:12:32;9.15;;;3.67;;
61764;SDS011;50188;48.114;-1.388;2022-11-15T07:14:58;10.50;;;4.13;;
61764;SDS011;50188;48.114;-1.388;2022-11-15T07:17:24;9.43;;;2.60;;
61764;SDS011;50188;48.114;-1.388;2022-11-15T07:19:50;7.38;;;2.88;;
61764;SDS011;50188;48.114;-1.388;2022-11-15T07:22:15;7.88;;;2.72;;
61764;SDS011;50188;48.114;-1.388;2022-11-15T07:24:41;9.13;;;3.28;;
61764;SDS011;50188;48.114;-1.388;2022-11-15T07:27:06;9.07;;;3.30;;
61764;SDS011;50188;48.114;-1.388;2022-11-15T07:29:32;4.25;;;2.50;;
61764;SDS011;50188;48.114;-1.388;2022-11-15T07:31:57;7.70;;;2.53;;
61764;SDS011;50188;48.114;-1.388;2022-11-15T07:34:24;4.55;;;2.33;;
61764;SDS011;50188;48.114;-1.388;2022-11-15T07:36:49;3.30;;;2.25;;
61764;SDS011;50188;48.114;-1.388;2022-11-15T07:39:15;4.00;;;2.58;;
61764;SDS011;50188;48.114;-1.388;2022-11-15T07:41:40;6.78;;;3.17;;
61764;SDS011;50188;48.114;-1.388;2022-11-15T07:44:08;9.00;;;3.38;;
61764;SDS011;50188;48.114;-1.388;2022-11-15T07:46:34;6.03;;;2.97;;
61764;SDS011;50188;48.114;-1.388;2022-11-15T07:48:59;2.85;;;2.53;;
61764;SDS011;50188;48.114;-1.388;2022-11-15T07:51:25;7.68;;;3.70;;
61764;SDS011;50188;48.114;-1.388;2022-11-15T07:53:50;5.63;;;3.25;;
61764;SDS011;50188;48.114;-1.388;2022-11-15T07:56:16;4.15;;;2.63;;
61764;SDS011;50188;48.114;-1.388;2022-11-15T07:58:42;5.80;;;3.35;;
61764;SDS011;50188;48.114;-1.388;2022-11-15T08:01:10;5.95;;;3.67;;
61764;SDS011;50188;48.114;-1.388;2022-11-15T08:03:35;7.30;;;3.28;;
61764;SDS011;50188;48.114;-1.388;2022-11-15T08:06:02;6.45;;;3.40;;
61764;SDS011;50188;48.114;-1.388;2022-11-15T08:08:28;4.35;;;3.10;;
61764;SDS011;50188;48.114;-1.388;2022-11-15T08:10:54;7.22;;;3.85;;
61764;SDS011;50188;48.114;-1.388;2022-11-15T08:13:22;6.88;;;3.55;;
61764;SDS011;50188;48.114;-1.388;2022-11-15T08:15:47;4.45;;;3.33;;
61764;SDS011;50188;48.114;-1.388;2022-11-15T08:18:13;8.55;;;4.10;;
61764;SDS011;50188;48.114;-1.388;2022-11-15T08:20:41;6.38;;;3.85;;
61764;SDS011;50188;48.114;-1.388;2022-11-15T08:23:08;5.60;;;3.00;;
61764;SDS011;50188;48.114;-1.388;2022-11-15T08:25:35;7.85;;;2.95;;
61764;SDS011;50188;48.114;-1.388;2022-11-15T08:28:02;7.57;;;4.20;;
61764;SDS011;50188;48.114;-1.388;2022-11-15T08:30:30;4.95;;;3.20;;
61764;SDS011;50188;48.114;-1.388;2022-11-15T08:32:56;3.17;;;2.35;;
61764;SDS011;50188;48.114;-1.388;2022-11-15T08:35:23;10.25;;;3.30;;
61764;SDS011;50188;48.114;-1.388;2022-11-15T08:37:49;4.32;;;2.90;;
61764;SDS011;50188;48.114;-1.388;2022-11-15T08:40:15;4.70;;;3.30;;
61764;SDS011;50188;48.114;-1.388;2022-11-15T08:42:41;5.38;;;2.67;;
61764;SDS011;50188;48.114;-1.388;2022-11-15T08:45:07;3.63;;;2.78;;
61764;SDS011;50188;48.114;-1.388;2022-11-15T08:47:33;4.18;;;2.90;;
61764;SDS011;50188;48.114;-1.388;2022-11-15T08:50:00;2.88;;;2.08;;
61764;SDS011;50188;48.114;-1.388;2022-11-15T08:52:25;4.05;;;2.20;;
61764;SDS011;50188;48.114;-1.388;2022-11-15T08:54:51;1.92;;;1.67;;
61764;SDS011;50188;48.114;-1.388;2022-11-15T08:57:17;2.00;;;1.90;;
61764;SDS011;50188;48.114;-1.388;2022-11-15T08:59:43;2.45;;;1.92;;
61764;SDS011;50188;48.114;-1.388;2022-11-15T09:02:12;3.30;;;1.95;;
61764;SDS011;50188;48.114;-1.388;2022-11-15T09:04:42;2.55;;;1.73;;
61764;SDS011;50188;48.114;-1.388;2022-11-15T09:07:09;3.95;;;2.08;;
61764;SDS011;50188;48.114;-1.388;2022-11-15T09:09:36;5.05;;;2.63;;
61764;SDS011;50188;48.114;-1.388;2022-11-15T09:12:02;2.42;;;2.28;;
61764;SDS011;50188;48.114;-1.388;2022-11-15T09:14:28;3.63;;;2.28;;
61764;SDS011;50188;48.114;-1.388;2022-11-15T09:16:54;6.50;;;2.25;;
61764;SDS011;50188;48.114;-1.388;2022-11-15T09:19:20;3.05;;;2.30;;
61764;SDS011;50188;48.114;-1.388;2022-11-15T09:21:46;7.00;;;1.90;;
61764;SDS011;50188;48.114;-1.388;2022-11-15T09:24:12;2.08;;;1.88;;
61764;SDS011;50188;48.114;-1.388;2022-11-15T09:26:38;3.53;;;1.90;;
61764;SDS011;50188;48.114;-1.388;2022-11-15T09:29:04;3.08;;;2.47;;
61764;SDS011;50188;48.114;-1.388;2022-11-15T09:31:30;7.03;;;2.38;;
61764;SDS011;50188;48.114;-1.388;2022-11-15T09:33:55;6.43;;;2.70;;
61764;SDS011;50188;48.114;-1.388;2022-11-15T09:36:21;5.18;;;2.40;;
61764;SDS011;50188;48.114;-1.388;2022-11-15T09:38:47;3.80;;;2.22;;
61764;SDS011;50188;48.114;-1.388;2022-11-15T09:41:22;4.07;;;1.90;;
61764;SDS011;50188;48.114;-1.388;2022-11-15T09:44:47;7.82;;;3.10;;
61764;SDS011;50188;48.114;-1.388;2022-11-15T09:50:09;6.47;;;2.83;;
61764;SDS011;50188;48.114;-1.388;2022-11-15T09:52:37;5.90;;;3.05;;
61764;SDS011;50188;48.114;-1.388;2022-11-15T09:55:07;10.52;;;3.78;;
61764;SDS011;50188;48.114;-1.388;2022-11-15T09:57:39;6.00;;;2.63;;
61764;SDS011;50188;48.114;-1.388;2022-11-15T10:00:17;9.30;;;3.45;;
61764;SDS011;50188;48.114;-1.388;2022-11-15T10:03:06;4.60;;;2.60;;
61764;SDS011;50188;48.114;-1.388;2022-11-15T10:05:38;4.43;;;2.67;;
61764;SDS011;50188;48.114;-1.388;2022-11-15T10:11:09;4.05;;;2.67;;
61764;SDS011;50188;48.114;-1.388;2022-11-15T10:13:37;6.88;;;3.42;;
61764;SDS011;50188;48.114;-1.388;2022-11-15T10:16:22;7.05;;;3.33;;
61764;SDS011;50188;48.114;-1.388;2022-11-15T10:22:05;11.32;;;3.88;;
61764;SDS011;50188;48.114;-1.388;2022-11-15T10:24:57;9.90;;;3.55;;
61764;SDS011;50188;48.114;-1.388;2022-11-15T10:27:37;5.25;;;3.17;;
61764;SDS011;50188;48.114;-1.388;2022-11-15T10:30:10;2.60;;;2.27;;
61764;SDS011;50188;48.114;-1.388;2022-11-15T10:32:38;11.15;;;3.38;;
61764;SDS011;50188;48.114;-1.388;2022-11-15T10:35:23;9.57;;;3.92;;
61764;SDS011;50188;48.114;-1.388;2022-11-15T10:37:51;19.63;;;5.07;;
61764;SDS011;50188;48.114;-1.388;2022-11-15T10:40:28;14.02;;;3.80;;
61764;SDS011;50188;48.114;-1.388;2022-11-15T10:43:05;12.02;;;3.53;;
61764;SDS011;50188;48.114;-1.388;2022-11-15T10:45:39;9.43;;;4.32;;
61764;SDS011;50188;48.114;-1.388;2022-11-15T10:48:19;11.57;;;4.47;;
61764;SDS011;50188;48.114;-1.388;2022-11-15T10:50:47;10.98;;;3.53;;
61764;SDS011;50188;48.114;-1.388;2022-11-15T10:53:26;11.23;;;3.53;;
61764;SDS011;50188;48.114;-1.388;2022-11-15T10:56:07;4.88;;;2.63;;
61764;SDS011;50188;48.114;-1.388;2022-11-15T10:58:41;4.20;;;2.33;;
61764;SDS011;50188;48.114;-1.388;2022-11-15T11:01:10;4.68;;;2.72;;
61764;SDS011;50188;48.114;-1.388;2022-11-15T11:03:38;8.45;;;2.58;;
61764;SDS011;50188;48.114;-1.388;2022-11-15T11:06:11;5.85;;;3.05;;
61764;SDS011;50188;48.114;-1.388;2022-11-15T11:08:56;7.65;;;2.22;;
61764;SDS011;50188;48.114;-1.388;2022-11-15T11:11:44;2.83;;;1.90;;
61764;SDS011;50188;48.114;-1.388;2022-11-15T11:14:11;6.90;;;2.47;;
61764;SDS011;50188;48.114;-1.388;2022-11-15T11:16:43;5.05;;;2.45;;
61764;SDS011;50188;48.114;-1.388;2022-11-15T11:22:05;12.68;;;3.42;;
61764;SDS011;50188;48.114;-1.388;2022-11-15T11:25:11;7.75;;;3.17;;
61764;SDS011;50188;48.114;-1.388;2022-11-15T11:27:59;6.28;;;2.55;;
61764;SDS011;50188;48.114;-1.388;2022-11-15T11:31:00;8.38;;;3.25;;
61764;SDS011;50188;48.114;-1.388;2022-11-15T11:37:01;10.23;;;3.33;;
61764;SDS011;50188;48.114;-1.388;2022-11-15T11:39:52;10.32;;;3.63;;
61764;SDS011;50188;48.114;-1.388;2022-11-15T11:42:59;8.68;;;3.45;;
61764;SDS011;50188;48.114;-1.388;2022-11-15T11:48:43;5.70;;;2.45;;
61764;SDS011;50188;48.114;-1.388;2022-11-15T11:51:25;11.25;;;4.20;;
61764;SDS011;50188;48.114;-1.388;2022-11-15T11:54:03;5.22;;;2.97;;
61764;SDS011;50188;48.114;-1.388;2022-11-15T11:56:44;9.93;;;3.88;;
61764;SDS011;50188;48.114;-1.388;2022-11-15T11:59:25;12.18;;;4.03;;
61764;SDS011;50188;48.114;-1.388;2022-11-15T12:02:00;15.40;;;5.03;;
61764;SDS011;50188;48.114;-1.388;2022-11-15T12:04:38;10.45;;;5.22;;
61764;SDS011;50188;48.114;-1.388;2022-11-15T12:07:15;7.65;;;3.65;;
61764;SDS011;50188;48.114;-1.388;2022-11-15T12:13:11;9.55;;;4.10;;
61764;SDS011;50188;48.114;-1.388;2022-11-15T12:15:53;13.55;;;4.75;;
61764;SDS011;50188;48.114;-1.388;2022-11-15T12:18:26;9.43;;;4.38;;
61764;SDS011;50188;48.114;-1.388;2022-11-15T12:20:58;13.43;;;5.32;;
61764;SDS011;50188;48.114;-1.388;2022-11-15T12:23:29;13.25;;;5.53;;
61764;SDS011;50188;48.114;-1.388;2022-11-15T12:26:08;25.70;;;11.23;;
61764;SDS011;50188;48.114;-1.388;2022-11-15T12:28:41;14.68;;;6.70;;
61764;SDS011;50188;48.114;-1.388;2022-11-15T12:31:34;13.27;;;4.90;;
61764;SDS011;50188;48.114;-1.388;2022-11-15T12:34:34;16.38;;;4.72;;
61764;SDS011;50188;48.114;-1.388;2022-11-15T12:37:01;15.77;;;5.63;;
61764;SDS011;50188;48.114;-1.388;2022-11-15T12:45:49;15.77;;;5.05;;
61764;SDS011;50188;48.114;-1.388;2022-11-15T12:51:12;12.75;;;4.03;;
61764;SDS011;50188;48.114;-1.388;2022-11-15T12:53:38;17.77;;;5.47;;
61764;SDS011;50188;48.114;-1.388;2022-11-15T12:56:19;15.90;;;4.43;;
61764;SDS011;50188;48.114;-1.388;2022-11-15T12:58:57;17.65;;;4.53;;
61764;SDS011;50188;48.114;-1.388;2022-11-15T13:04:23;16.52;;;4.55;;
61764;SDS011;50188;48.114;-1.388;2022-11-15T13:06:55;6.38;;;3.70;;
61764;SDS011;50188;48.114;-1.388;2022-11-15T13:15:30;12.67;;;3.60;;
61764;SDS011;50188;48.114;-1.388;2022-11-15T13:20:55;9.55;;;3.63;;
61764;SDS011;50188;48.114;-1.388;2022-11-15T13:23:21;10.90;;;3.20;;
61764;SDS011;50188;48.114;-1.388;2022-11-15T13:28:42;15.00;;;3.17;;
61764;SDS011;50188;48.114;-1.388;2022-11-15T13:34:22;10.82;;;3.17;;
61764;SDS011;50188;48.114;-1.388;2022-11-15T13:36:52;9.10;;;4.32;;
61764;SDS011;50188;48.114;-1.388;2022-11-15T13:39:25;7.50;;;2.90;;
61764;SDS011;50188;48.114;-1.388;2022-11-15T13:41:56;12.40;;;2.80;;
61764;SDS011;50188;48.114;-1.388;2022-11-15T13:44:23;15.82;;;4.82;;
61764;SDS011;50188;48.114;-1.388;2022-11-15T13:47:12;13.55;;;3.58;;
61764;SDS011;50188;48.114;-1.388;2022-11-15T13:49:40;8.75;;;2.97;;
61764;SDS011;50188;48.114;-1.388;2022-11-15T13:52:08;13.88;;;4.72;;
61764;SDS011;50188;48.114;-1.388;2022-11-15T13:54:41;5.80;;;3.40;;
61764;SDS011;50188;48.114;-1.388;2022-11-15T13:57:11;15.52;;;3.38;;
61764;SDS011;50188;48.114;-1.388;2022-11-15T13:59:48;8.02;;;3.30;;
61764;SDS011;50188;48.114;-1.388;2022-11-15T14:02:21;8.82;;;3.47;;
61764;SDS011;50188;48.114;-1.388;2022-11-15T14:04:53;9.70;;;3.55;;
61764;SDS011;50188;48.114;-1.388;2022-11-15T14:07:23;8.90;;;3.25;;
61764;SDS011;50188;48.114;-1.388;2022-11-15T14:09:52;7.72;;;3.08;;
61764;SDS011;50188;48.114;-1.388;2022-11-15T14:12:31;10.82;;;3.28;;
61764;SDS011;50188;48.114;-1.388;2022-11-15T14:14:59;7.20;;;2.58;;
61764;SDS011;50188;48.114;-1.388;2022-11-15T14:17:34;8.02;;;3.00;;
61764;SDS011;50188;48.114;-1.388;2022-11-15T14:20:02;8.05;;;3.05;;
61764;SDS011;50188;48.114;-1.388;2022-11-15T14:22:50;13.38;;;4.43;;
61764;SDS011;50188;48.114;-1.388;2022-11-15T14:25:19;5.10;;;3.03;;
61764;SDS011;50188;48.114;-1.388;2022-11-15T14:30:34;11.50;;;3.28;;
61764;SDS011;50188;48.114;-1.388;2022-11-15T14:32:59;9.68;;;3.17;;
61764;SDS011;50188;48.114;-1.388;2022-11-15T14:35:25;4.85;;;2.15;;
61764;SDS011;50188;48.114;-1.388;2022-11-15T14:37:51;5.63;;;1.98;;
61764;SDS011;50188;48.114;-1.388;2022-11-15T14:40:17;6.22;;;2.22;;
61764;SDS011;50188;48.114;-1.388;2022-11-15T14:42:44;4.07;;;1.70;;
61764;SDS011;50188;48.114;-1.388;2022-11-15T14:45:18;9.75;;;2.33;;
61764;SDS011;50188;48.114;-1.388;2022-11-15T14:47:46;11.25;;;2.95;;
61764;SDS011;50188;48.114;-1.388;2022-11-15T14:50:16;7.85;;;1.98;;
61764;SDS011;50188;48.114;-1.388;2022-11-15T14:52:44;6.20;;;1.92;;
61764;SDS011;50188;48.114;-1.388;2022-11-15T14:55:26;6.40;;;1.67;;
61764;SDS011;50188;48.114;-1.388;2022-11-15T14:57:53;4.72;;;2.30;;
61764;SDS011;50188;48.114;-1.388;2022-11-15T15:00:20;6.25;;;2.28;;
61764;SDS011;50188;48.114;-1.388;2022-11-15T15:02:46;9.60;;;3.13;;
61764;SDS011;50188;48.114;-1.388;2022-11-15T15:05:18;6.72;;;2.50;;
61764;SDS011;50188;48.114;-1.388;2022-11-15T15:07:48;5.75;;;2.40;;
61764;SDS011;50188;48.114;-1.388;2022-11-15T15:10:14;11.27;;;4.15;;
61764;SDS011;50188;48.114;-1.388;2022-11-15T15:12:41;8.05;;;3.53;;
61764;SDS011;50188;48.114;-1.388;2022-11-15T15:15:15;13.63;;;4.15;;
61764;SDS011;50188;48.114;-1.388;2022-11-15T15:17:42;11.07;;;3.28;;
61764;SDS011;50188;48.114;-1.388;2022-11-15T15:20:08;6.20;;;3.08;;
61764;SDS011;50188;48.114;-1.388;2022-11-15T15:22:35;4.80;;;2.53;;
61764;SDS011;50188;48.114;-1.388;2022-11-15T15:25:01;6.40;;;2.55;;
61764;SDS011;50188;48.114;-1.388;2022-11-15T15:27:28;5.68;;;2.20;;
61764;SDS011;50188;48.114;-1.388;2022-11-15T15:29:54;8.48;;;2.97;;
61764;SDS011;50188;48.114;-1.388;2022-11-15T15:32:20;9.57;;;3.30;;
61764;SDS011;50188;48.114;-1.388;2022-11-15T15:34:46;13.35;;;2.72;;
61764;SDS011;50188;48.114;-1.388;2022-11-15T15:37:22;8.73;;;3.90;;
61764;SDS011;50188;48.114;-1.388;2022-11-15T15:39:50;9.27;;;4.15;;
61764;SDS011;50188;48.114;-1.388;2022-11-15T15:42:17;9.70;;;3.03;;
61764;SDS011;50188;48.114;-1.388;2022-11-15T15:44:43;9.68;;;3.53;;